Terminal Aerodrome Forecast
Issued by NWS Shreveport, LA

Home | Current Version | Previous Version | Text Only | Print | Product List | Glossary On
Versions: 1 2 3 4 5 6 7 8 9 10 11 12 13
000
FTUS44 KSHV 291600 AAA
TAFTYR
TAF AMD
KTYR 291607Z 2916/3012 16009KT P6SM VCTS SCT060CB BKN090 BKN140
      TEMPO 2916/2919 2SM +TSRA BR SCT015 BKN025CB
     FM291900 17007KT P6SM SCT025 SCT060 BKN130
     FM300000 17006KT P6SM SCT040 BKN150 BKN250
     FM301100 16004KT P6SM SCT020 SCT150 BKN250=

USA.gov is the U.S. government's official web portal to all federal, state and local government web resources and services.